createdAt,value
2023-03-16T00:00:00.944Z,-0.1
2023-03-16T00:01:00.924Z,-0.1
2023-03-16T00:02:01.028Z,-0.1
2023-03-16T00:03:01.020Z,-0.1
2023-03-16T00:04:00.924Z,0
2023-03-16T00:05:00.965Z,0
2023-03-16T00:06:00.950Z,0
2023-03-16T00:07:00.947Z,-0.1
2023-03-16T00:08:00.914Z,0
2023-03-16T00:09:00.866Z,0
2023-03-16T00:10:00.868Z,0
2023-03-16T00:11:00.826Z,-0.1
2023-03-16T00:12:00.799Z,-0.1
2023-03-16T00:13:00.754Z,-0.1
2023-03-16T00:14:00.745Z,-0.1
2023-03-16T00:15:00.708Z,-0.2
2023-03-16T00:16:00.730Z,-0.2
2023-03-16T00:17:00.666Z,-0.2
2023-03-16T00:18:00.644Z,-0.2
2023-03-16T00:19:00.582Z,-0.2
2023-03-16T00:20:00.612Z,-0.2
2023-03-16T00:21:01.405Z,-0.3
2023-03-16T00:22:00.605Z,-0.3
2023-03-16T00:23:00.594Z,-0.3
2023-03-16T00:24:00.600Z,-0.4
2023-03-16T00:25:00.597Z,-0.4
2023-03-16T00:26:00.602Z,-0.4
2023-03-16T00:27:00.597Z,-0.4
2023-03-16T00:28:00.580Z,-0.4
2023-03-16T00:29:00.601Z,-0.4
2023-03-16T00:30:00.613Z,-0.4
2023-03-16T00:31:00.580Z,-0.4
2023-03-16T00:32:00.703Z,-0.4
2023-03-16T00:33:00.603Z,-0.4
2023-03-16T00:34:00.583Z,-0.4
2023-03-16T00:35:00.586Z,-0.4
2023-03-16T00:36:00.621Z,-0.4
2023-03-16T00:37:00.610Z,-0.4
2023-03-16T00:38:01.134Z,-0.4
2023-03-16T00:39:00.592Z,-0.4
2023-03-16T00:40:00.651Z,-0.4
2023-03-16T00:41:00.588Z,-0.4
2023-03-16T00:42:00.607Z,-0.4
2023-03-16T00:43:00.590Z,-0.4
2023-03-16T00:44:00.592Z,-0.4
2023-03-16T00:45:00.630Z,-0.4
2023-03-16T00:46:00.659Z,-0.5
2023-03-16T00:47:00.630Z,-0.5
2023-03-16T00:48:00.590Z,-0.5
2023-03-16T00:49:00.596Z,-0.5
2023-03-16T00:50:00.596Z,-0.5
2023-03-16T00:51:00.615Z,-0.5
2023-03-16T00:52:00.621Z,-0.6
2023-03-16T00:53:00.601Z,-0.6
2023-03-16T00:54:00.602Z,-0.6
2023-03-16T00:55:00.625Z,-0.6
2023-03-16T00:56:00.621Z,-0.6
2023-03-16T00:57:00.636Z,-0.6
2023-03-16T00:58:00.611Z,-0.6
2023-03-16T00:59:00.609Z,-0.6
2023-03-16T01:00:00.686Z,-0.6
2023-03-16T01:01:02.897Z,-0.6
2023-03-16T01:02:00.643Z,-0.6
2023-03-16T01:03:00.634Z,-0.6
2023-03-16T01:04:00.609Z,-0.6
2023-03-16T01:05:00.623Z,-0.6
2023-03-16T01:06:00.636Z,-0.6
2023-03-16T01:07:00.640Z,-0.6
2023-03-16T01:08:00.615Z,-0.6
2023-03-16T01:09:00.617Z,-0.6
2023-03-16T01:10:00.634Z,-0.6
2023-03-16T01:11:00.639Z,-0.6
2023-03-16T01:12:00.614Z,-0.6
2023-03-16T01:13:00.674Z,-0.6
2023-03-16T01:14:00.621Z,-0.6
2023-03-16T01:15:00.622Z,-0.6
2023-03-16T01:16:00.642Z,-0.6
2023-03-16T01:17:00.681Z,-0.6
2023-03-16T01:18:00.634Z,-0.6
2023-03-16T01:19:00.653Z,-0.6
2023-03-16T01:20:00.624Z,-0.6
2023-03-16T01:21:00.627Z,-0.6
2023-03-16T01:22:00.641Z,-0.7
2023-03-16T01:23:00.644Z,-0.7
2023-03-16T01:24:00.645Z,-0.7
2023-03-16T01:25:00.649Z,-0.7
2023-03-16T01:26:00.631Z,-0.7
2023-03-16T01:27:00.645Z,-0.7
2023-03-16T01:28:00.656Z,-0.7
2023-03-16T01:29:00.681Z,-0.7
2023-03-16T01:30:00.649Z,-0.7
2023-03-16T01:31:00.672Z,-0.7
2023-03-16T01:32:00.662Z,-0.7
2023-03-16T01:33:00.690Z,-0.7
2023-03-16T01:34:00.658Z,-0.7
2023-03-16T01:35:00.657Z,-0.7
2023-03-16T01:36:00.696Z,-0.7
2023-03-16T01:37:00.643Z,-0.7
2023-03-16T01:38:00.646Z,-0.7
2023-03-16T01:39:00.657Z,-0.7
2023-03-16T01:40:00.675Z,-0.7
2023-03-16T01:41:00.650Z,-0.7
2023-03-16T01:42:00.645Z,-0.7
2023-03-16T01:43:00.680Z,-0.7
2023-03-16T01:44:00.693Z,-0.7
2023-03-16T01:45:00.654Z,-0.7
2023-03-16T01:46:00.702Z,-0.7
2023-03-16T01:47:00.693Z,-0.7
2023-03-16T01:48:00.667Z,-0.7
2023-03-16T01:49:00.688Z,-0.7
2023-03-16T01:50:00.665Z,-0.7
2023-03-16T01:51:00.655Z,-0.6
2023-03-16T01:52:00.667Z,-0.7
2023-03-16T01:53:00.659Z,-0.7
2023-03-16T01:54:00.677Z,-0.6
2023-03-16T01:55:00.705Z,-0.7
2023-03-16T01:56:00.677Z,-0.7
2023-03-16T01:57:00.662Z,-0.7
2023-03-16T01:58:00.668Z,-0.7
2023-03-16T01:59:00.692Z,-0.7
2023-03-16T02:00:00.674Z,-0.7
2023-03-16T02:01:00.833Z,-0.7
2023-03-16T02:02:00.871Z,-0.7
2023-03-16T02:03:00.680Z,-0.7
2023-03-16T02:04:00.752Z,-0.7
2023-03-16T02:05:01.090Z,-0.7
2023-03-16T02:06:00.861Z,-0.7
2023-03-16T02:07:00.794Z,-0.7
2023-03-16T02:08:01.449Z,-0.7
2023-03-16T02:09:00.857Z,-0.7
2023-03-16T02:10:00.735Z,-0.7
2023-03-16T02:11:01.073Z,-0.7
2023-03-16T02:12:00.781Z,-0.7
2023-03-16T02:13:00.776Z,-0.7
2023-03-16T02:14:00.856Z,-0.7
2023-03-16T02:15:00.870Z,-0.7
2023-03-16T02:16:00.904Z,-0.7
2023-03-16T02:17:00.760Z,-0.7
2023-03-16T02:18:00.846Z,-0.7
2023-03-16T02:19:00.798Z,-0.7
2023-03-16T02:20:00.783Z,-0.8
2023-03-16T02:21:00.887Z,-0.8
2023-03-16T02:22:00.872Z,-0.8
2023-03-16T02:23:00.848Z,-0.8
2023-03-16T02:24:00.789Z,-0.8
2023-03-16T02:25:00.865Z,-0.8
2023-03-16T02:26:00.854Z,-0.8
2023-03-16T02:27:00.906Z,-0.8
2023-03-16T02:28:00.819Z,-0.8
2023-03-16T02:29:00.877Z,-0.8
2023-03-16T02:30:00.865Z,-0.8
2023-03-16T02:31:00.891Z,-0.8
2023-03-16T02:32:00.799Z,-0.8
2023-03-16T02:33:00.928Z,-0.8
2023-03-16T02:34:00.902Z,-0.9
2023-03-16T02:35:00.940Z,-0.8
2023-03-16T02:36:00.905Z,-0.8
2023-03-16T02:37:00.811Z,-0.8
2023-03-16T02:38:00.796Z,-0.8
2023-03-16T02:39:00.862Z,-0.8
2023-03-16T02:40:01.836Z,-0.8
2023-03-16T02:41:00.734Z,-0.8
2023-03-16T02:42:00.795Z,-0.8
2023-03-16T02:43:00.854Z,-0.8
2023-03-16T02:44:00.888Z,-0.8
2023-03-16T02:45:00.795Z,-0.8
2023-03-16T02:46:00.862Z,-0.8
2023-03-16T02:47:00.800Z,-0.8
2023-03-16T02:48:00.731Z,-0.8
2023-03-16T02:49:00.957Z,-0.8
2023-03-16T02:50:00.741Z,-0.8
2023-03-16T02:51:00.739Z,-0.8
2023-03-16T02:52:00.720Z,-0.8
2023-03-16T02:53:00.740Z,-0.9
2023-03-16T02:54:00.744Z,-0.9
2023-03-16T02:55:00.744Z,-0.9
2023-03-16T02:56:00.723Z,-0.9
2023-03-16T02:57:00.722Z,-0.9
2023-03-16T02:58:00.731Z,-0.9
2023-03-16T02:59:00.750Z,-0.9
2023-03-16T03:00:01.797Z,-0.9
2023-03-16T03:01:01.799Z,-0.9
2023-03-16T03:02:01.757Z,-0.9
2023-03-16T03:03:01.809Z,-0.9
2023-03-16T03:04:01.765Z,-0.9
2023-03-16T03:05:01.763Z,-0.9
2023-03-16T03:06:01.782Z,-0.9
2023-03-16T03:07:01.751Z,-0.9
2023-03-16T03:08:01.757Z,-0.9
2023-03-16T03:09:01.782Z,-0.9
2023-03-16T03:10:01.787Z,-0.9
2023-03-16T03:11:01.771Z,-0.9
2023-03-16T03:12:01.767Z,-0.9
2023-03-16T03:13:01.754Z,-0.9
2023-03-16T03:14:01.787Z,-0.9
2023-03-16T03:15:01.775Z,-1
2023-03-16T03:16:01.858Z,-1
2023-03-16T03:17:01.779Z,-1
2023-03-16T03:18:01.760Z,-1
2023-03-16T03:19:01.765Z,-1.1
2023-03-16T03:20:01.800Z,-1
2023-03-16T03:21:01.780Z,-1
2023-03-16T03:22:01.764Z,-1
2023-03-16T03:23:01.768Z,-1
2023-03-16T03:24:01.772Z,-1
2023-03-16T03:25:01.784Z,-1
2023-03-16T03:26:01.778Z,-0.9
2023-03-16T03:27:01.780Z,-1
2023-03-16T03:28:01.829Z,-0.9
2023-03-16T03:29:01.823Z,-1
2023-03-16T03:30:01.837Z,-0.9
2023-03-16T03:31:01.790Z,-1
2023-03-16T03:32:01.791Z,-1
2023-03-16T03:33:01.865Z,-1
2023-03-16T03:34:01.780Z,-1
2023-03-16T03:35:01.797Z,-1
2023-03-16T03:36:01.861Z,-1
2023-03-16T03:37:01.782Z,-0.9
2023-03-16T03:38:01.814Z,-1
2023-03-16T03:39:01.783Z,-1
2023-03-16T03:40:01.823Z,-1
2023-03-16T03:41:01.812Z,-1
2023-03-16T03:42:01.790Z,-1
2023-03-16T03:43:01.804Z,-1
2023-03-16T03:44:01.821Z,-1
2023-03-16T03:45:01.813Z,-1.1
2023-03-16T03:46:01.973Z,-1.1
2023-03-16T03:47:01.915Z,-1.1
2023-03-16T03:48:01.808Z,-1.1
2023-03-16T03:49:01.812Z,-1.1
2023-03-16T03:50:01.853Z,-1.1
2023-03-16T03:51:01.805Z,-1.1
2023-03-16T03:52:01.809Z,-1
2023-03-16T03:53:01.806Z,-1
2023-03-16T03:54:01.805Z,-1
2023-03-16T03:55:01.818Z,-1
2023-03-16T03:56:01.823Z,-1
2023-03-16T03:57:01.818Z,-1
2023-03-16T03:58:02.196Z,-1
2023-03-16T03:59:01.809Z,-1
2023-03-16T04:00:01.858Z,-1
2023-03-16T04:01:01.826Z,-1
2023-03-16T04:02:01.961Z,-1
2023-03-16T04:03:01.913Z,-0.9
2023-03-16T04:04:01.815Z,-0.9
2023-03-16T04:05:01.848Z,-0.9
2023-03-16T04:06:01.813Z,-0.9
2023-03-16T04:07:01.829Z,-0.9
2023-03-16T04:08:01.833Z,-0.9
2023-03-16T04:09:01.822Z,-0.9
2023-03-16T04:10:01.989Z,-0.9
2023-03-16T04:11:01.833Z,-0.9
2023-03-16T04:12:02.587Z,-0.9
2023-03-16T04:13:01.833Z,-0.9
2023-03-16T04:14:01.843Z,-0.9
2023-03-16T04:15:01.852Z,-0.9
2023-03-16T04:16:01.818Z,-0.9
2023-03-16T04:17:02.005Z,-0.9
2023-03-16T04:18:01.828Z,-0.9
2023-03-16T04:19:01.849Z,-0.9
2023-03-16T04:20:01.880Z,-0.9
2023-03-16T04:21:01.828Z,-0.9
2023-03-16T04:22:01.851Z,-0.9
2023-03-16T04:23:01.832Z,-0.9
2023-03-16T04:24:01.843Z,-0.9
2023-03-16T04:25:01.861Z,-0.9
2023-03-16T04:26:01.859Z,-0.9
2023-03-16T04:27:01.852Z,-0.9
2023-03-16T04:28:01.831Z,-0.9
2023-03-16T04:29:01.868Z,-0.9
2023-03-16T04:30:01.862Z,-0.9
2023-03-16T04:31:01.935Z,-0.9
2023-03-16T04:32:01.903Z,-0.9
2023-03-16T04:33:01.903Z,-0.9
2023-03-16T04:34:01.847Z,-0.9
2023-03-16T04:35:01.872Z,-0.9
2023-03-16T04:36:01.911Z,-0.9
2023-03-16T04:37:01.860Z,-0.9
2023-03-16T04:38:01.853Z,-0.9
2023-03-16T04:39:01.853Z,-0.9
2023-03-16T04:40:01.953Z,-0.9
2023-03-16T04:41:01.856Z,-0.9
2023-03-16T04:42:01.869Z,-0.9
2023-03-16T04:43:01.852Z,-0.9
2023-03-16T04:44:01.871Z,-0.9
2023-03-16T04:45:01.885Z,-0.9
2023-03-16T04:46:01.919Z,-0.9
2023-03-16T04:47:01.871Z,-0.8
2023-03-16T04:48:01.865Z,-0.8
2023-03-16T04:49:01.857Z,-0.8
2023-03-16T04:50:01.915Z,-0.8
2023-03-16T04:51:01.880Z,-0.8
2023-03-16T04:52:01.879Z,-0.8
2023-03-16T04:53:01.884Z,-0.8
2023-03-16T04:54:01.891Z,-0.7
2023-03-16T04:55:01.887Z,-0.7
2023-03-16T04:56:01.880Z,-0.7
2023-03-16T04:57:01.868Z,-0.7
2023-03-16T04:58:01.911Z,-0.7
2023-03-16T04:59:01.923Z,-0.7
2023-03-16T05:00:01.943Z,-0.7
2023-03-16T05:01:01.883Z,-0.6
2023-03-16T05:02:01.863Z,-0.7
2023-03-16T05:03:01.883Z,-0.7
2023-03-16T05:04:01.879Z,-0.7
2023-03-16T05:05:02.011Z,-0.7
2023-03-16T05:06:01.962Z,-0.7
2023-03-16T05:07:01.890Z,-0.7
2023-03-16T05:08:01.929Z,-0.7
2023-03-16T05:09:01.872Z,-0.8
2023-03-16T05:10:01.898Z,-0.8
2023-03-16T05:11:01.906Z,-0.8
2023-03-16T05:12:01.888Z,-0.8
2023-03-16T05:13:01.890Z,-0.8
2023-03-16T05:14:01.887Z,-0.8
2023-03-16T05:15:01.934Z,-0.8
2023-03-16T05:16:02.069Z,-0.8
2023-03-16T05:17:01.895Z,-0.8
2023-03-16T05:18:01.923Z,-0.8
2023-03-16T05:19:01.926Z,-0.8
2023-03-16T05:20:02.052Z,-0.8
2023-03-16T05:21:01.954Z,-0.8
2023-03-16T05:22:01.913Z,-0.8
2023-03-16T05:23:01.972Z,-0.8
2023-03-16T05:24:01.936Z,-0.8
2023-03-16T05:25:01.933Z,-0.8
2023-03-16T05:26:02.002Z,-0.8
2023-03-16T05:27:01.957Z,-0.8
2023-03-16T05:28:01.933Z,-0.9
2023-03-16T05:29:02.012Z,-0.9
2023-03-16T05:30:01.957Z,-0.9
2023-03-16T05:31:02.005Z,-0.8
2023-03-16T05:32:01.929Z,-0.9
2023-03-16T05:33:02.052Z,-0.9
2023-03-16T05:34:02.290Z,-0.9
2023-03-16T05:35:01.970Z,-0.9
2023-03-16T05:36:02.042Z,-0.9
2023-03-16T05:37:02.027Z,-0.9
2023-03-16T05:38:01.942Z,-0.9
2023-03-16T05:39:01.947Z,-0.9
2023-03-16T05:40:02.190Z,-0.9
2023-03-16T05:41:04.574Z,-0.9
2023-03-16T05:42:01.968Z,-0.9
2023-03-16T05:43:02.090Z,-0.9
2023-03-16T05:44:01.951Z,-0.9
2023-03-16T05:45:02.152Z,-0.9
2023-03-16T05:46:02.109Z,-0.9
2023-03-16T05:47:02.194Z,-0.9
2023-03-16T05:48:02.262Z,-0.9
2023-03-16T05:49:02.060Z,-0.9
2023-03-16T05:50:02.008Z,-0.9
2023-03-16T05:51:02.000Z,-0.9
2023-03-16T05:52:02.885Z,-0.9
2023-03-16T05:53:02.013Z,-0.9
2023-03-16T05:54:02.025Z,-0.9
2023-03-16T05:55:02.090Z,-0.9
2023-03-16T05:56:02.069Z,-0.9
2023-03-16T05:57:02.010Z,-0.9
2023-03-16T05:58:03.823Z,-0.9
2023-03-16T05:59:02.029Z,-0.9
2023-03-16T06:00:02.140Z,-0.9
2023-03-16T06:01:02.084Z,-0.9
2023-03-16T06:02:02.063Z,-0.9
2023-03-16T06:03:02.047Z,-0.9
2023-03-16T06:04:02.141Z,-0.9
2023-03-16T06:05:02.312Z,-0.9
2023-03-16T06:06:02.211Z,-0.9
2023-03-16T06:07:02.030Z,-0.9
2023-03-16T06:08:02.167Z,-0.9
2023-03-16T06:09:00.633Z,-0.9
2023-03-16T06:10:00.637Z,-0.9
2023-03-16T06:11:00.656Z,-0.9
2023-03-16T06:12:00.624Z,-0.9
2023-03-16T06:13:00.636Z,-0.9
2023-03-16T06:14:00.636Z,-0.9
2023-03-16T06:15:00.629Z,-0.8
2023-03-16T06:16:00.682Z,-0.8
2023-03-16T06:17:00.660Z,-0.8
2023-03-16T06:18:00.633Z,-0.8
2023-03-16T06:19:00.633Z,-0.8
2023-03-16T06:20:00.649Z,-0.8
2023-03-16T06:21:00.653Z,-0.8
2023-03-16T06:22:00.694Z,-0.7
2023-03-16T06:23:00.642Z,-0.7
2023-03-16T06:24:00.661Z,-0.7
2023-03-16T06:25:00.643Z,-0.6
2023-03-16T06:26:00.664Z,-0.6
2023-03-16T06:27:00.660Z,-0.6
2023-03-16T06:28:00.641Z,-0.5
2023-03-16T06:29:00.647Z,-0.4
2023-03-16T06:30:00.665Z,-0.4
2023-03-16T06:31:00.661Z,-0.4
2023-03-16T06:32:00.665Z,-0.4
2023-03-16T06:33:00.697Z,-0.3
2023-03-16T06:34:00.647Z,-0.2
2023-03-16T06:35:00.670Z,-0.2
2023-03-16T06:36:00.703Z,-0.2
2023-03-16T06:37:00.649Z,-0.2
2023-03-16T06:38:00.667Z,-0.1
2023-03-16T06:39:00.671Z,-0.1
2023-03-16T06:40:00.678Z,-0.1
2023-03-16T06:41:00.686Z,-0.1
2023-03-16T06:42:00.682Z,0
2023-03-16T06:43:00.656Z,0.1
2023-03-16T06:44:00.655Z,0.1
2023-03-16T06:45:00.680Z,0.1
2023-03-16T06:46:00.742Z,0.1
2023-03-16T06:47:00.684Z,0.2
2023-03-16T06:48:00.670Z,0.2
2023-03-16T06:49:00.712Z,0.2
2023-03-16T06:50:00.692Z,0.3
2023-03-16T06:51:00.678Z,0.3
2023-03-16T06:52:00.666Z,0.4
2023-03-16T06:53:00.664Z,0.4
2023-03-16T06:54:00.668Z,0.4
2023-03-16T06:55:00.692Z,0.5
2023-03-16T06:56:00.697Z,0.5
2023-03-16T06:57:00.691Z,0.6
2023-03-16T06:58:00.683Z,0.6
2023-03-16T06:59:00.679Z,0.6
2023-03-16T07:00:00.710Z,0.7
2023-03-16T07:01:00.745Z,0.7
2023-03-16T07:02:00.672Z,0.8
2023-03-16T07:03:00.686Z,0.8
2023-03-16T07:04:00.721Z,0.9
2023-03-16T07:05:00.710Z,0.9
2023-03-16T07:06:00.674Z,0.9
2023-03-16T07:07:00.698Z,1
2023-03-16T07:08:00.679Z,1.1
2023-03-16T07:09:00.688Z,1.1
2023-03-16T07:10:00.732Z,1.1
2023-03-16T07:11:00.693Z,1.1
2023-03-16T07:12:00.716Z,1.2
2023-03-16T07:13:00.708Z,1.2
2023-03-16T07:14:00.717Z,1.3
2023-03-16T07:15:00.735Z,1.3
2023-03-16T07:16:00.692Z,1.4
2023-03-16T07:17:00.804Z,1.4
2023-03-16T07:18:00.705Z,1.4
2023-03-16T07:19:00.717Z,1.5
2023-03-16T07:20:00.709Z,1.6
2023-03-16T07:21:00.720Z,1.6
2023-03-16T07:22:00.699Z,1.6
2023-03-16T07:23:00.721Z,1.6
2023-03-16T07:24:00.718Z,1.7
2023-03-16T07:25:00.720Z,1.8
2023-03-16T07:26:00.695Z,1.8
2023-03-16T07:27:00.718Z,1.8
2023-03-16T07:28:00.701Z,1.9
2023-03-16T07:29:00.722Z,1.9
2023-03-16T07:30:00.725Z,1.9
2023-03-16T07:31:04.234Z,2
2023-03-16T07:32:00.755Z,2
2023-03-16T07:33:00.752Z,2.1
2023-03-16T07:34:00.726Z,2.1
2023-03-16T07:35:00.734Z,2.1
2023-03-16T07:36:00.787Z,2.2
2023-03-16T07:37:00.716Z,2.2
2023-03-16T07:38:00.732Z,2.2
2023-03-16T07:39:00.713Z,2.2
2023-03-16T07:40:00.752Z,2.3
2023-03-16T07:41:00.729Z,2.4
2023-03-16T07:42:00.725Z,2.4
2023-03-16T07:43:00.752Z,2.4
2023-03-16T07:44:00.728Z,2.5
2023-03-16T07:45:00.727Z,2.5
2023-03-16T07:46:00.758Z,2.6
2023-03-16T07:47:00.724Z,2.6
2023-03-16T07:48:00.741Z,2.7
2023-03-16T07:49:00.729Z,2.8
2023-03-16T07:50:00.722Z,2.8
2023-03-16T07:51:00.754Z,2.8
2023-03-16T07:52:00.751Z,2.8
2023-03-16T07:53:00.746Z,2.9
2023-03-16T07:54:00.745Z,2.9
2023-03-16T07:55:00.773Z,2.9
2023-03-16T07:56:00.729Z,3
2023-03-16T07:57:00.755Z,3
2023-03-16T07:58:00.773Z,3.1
2023-03-16T07:59:00.739Z,3.1
2023-03-16T08:00:00.728Z,3.1
2023-03-16T08:01:00.753Z,3.1
2023-03-16T08:02:00.777Z,3.2
2023-03-16T08:03:00.760Z,3.2
2023-03-16T08:04:00.827Z,3.2
2023-03-16T08:05:00.750Z,3.3
2023-03-16T08:06:00.748Z,3.4
2023-03-16T08:07:00.736Z,3.5
2023-03-16T08:08:00.754Z,3.5
2023-03-16T08:09:00.748Z,3.6
2023-03-16T08:10:00.754Z,3.7
2023-03-16T08:11:00.769Z,3.8
2023-03-16T08:12:00.751Z,3.8
2023-03-16T08:13:00.834Z,3.9
2023-03-16T08:14:00.747Z,3.9
2023-03-16T08:15:00.776Z,3.9
2023-03-16T08:16:00.936Z,4
2023-03-16T08:17:00.769Z,4.1
2023-03-16T08:18:00.764Z,4.1
2023-03-16T08:19:00.761Z,4.1
2023-03-16T08:20:00.778Z,4.2
2023-03-16T08:21:00.776Z,4.3
2023-03-16T08:22:01.883Z,4.4
2023-03-16T08:23:00.767Z,4.4
2023-03-16T08:24:00.756Z,4.4
2023-03-16T08:25:00.792Z,4.5
2023-03-16T08:26:00.782Z,4.6
2023-03-16T08:27:00.779Z,4.6
2023-03-16T08:28:00.757Z,4.7
2023-03-16T08:29:00.807Z,4.8
2023-03-16T08:30:00.781Z,4.8
2023-03-16T08:31:00.867Z,4.9
2023-03-16T08:32:00.778Z,4.9
2023-03-16T08:33:00.881Z,4.9
2023-03-16T08:34:00.767Z,4.9
2023-03-16T08:35:00.822Z,5
2023-03-16T08:36:00.863Z,5.1
2023-03-16T08:37:00.808Z,5.2
2023-03-16T08:38:00.771Z,5.2
2023-03-16T08:39:06.981Z,5.2
2023-03-16T08:40:00.794Z,5.3
2023-03-16T08:41:00.801Z,5.4
2023-03-16T08:42:00.789Z,5.4
2023-03-16T08:43:00.801Z,5.5
2023-03-16T08:44:00.778Z,5.6
2023-03-16T08:45:00.842Z,5.6
2023-03-16T08:46:00.842Z,5.7
2023-03-16T08:47:00.807Z,5.8
2023-03-16T08:48:00.787Z,5.8
2023-03-16T08:49:00.790Z,5.8
2023-03-16T08:50:00.896Z,5.9
2023-03-16T08:51:00.813Z,5.9
2023-03-16T08:52:00.803Z,6
2023-03-16T08:53:00.842Z,6.1
2023-03-16T08:54:00.807Z,6.1
2023-03-16T08:55:03.718Z,6.1
2023-03-16T08:56:00.809Z,6.2
2023-03-16T08:57:00.790Z,6.2
2023-03-16T08:58:00.793Z,6.2
2023-03-16T08:59:00.822Z,6.3
2023-03-16T09:00:00.821Z,6.3
2023-03-16T09:01:00.809Z,6.3
2023-03-16T09:02:00.855Z,6.4
2023-03-16T09:03:00.887Z,6.4
2023-03-16T09:04:00.911Z,6.4
2023-03-16T09:05:00.815Z,6.5
2023-03-16T09:06:00.794Z,6.5
2023-03-16T09:07:08.817Z,6.6
2023-03-16T09:08:00.801Z,6.6
2023-03-16T09:09:00.827Z,6.6
2023-03-16T09:10:00.888Z,6.7
2023-03-16T09:11:00.852Z,6.8
2023-03-16T09:12:00.825Z,6.8
2023-03-16T09:13:00.804Z,6.8
2023-03-16T09:14:00.834Z,6.8
2023-03-16T09:15:00.960Z,6.8
2023-03-16T09:16:00.813Z,6.9
2023-03-16T09:17:00.809Z,6.9
2023-03-16T09:18:00.817Z,6.9
2023-03-16T09:19:00.842Z,6.9
2023-03-16T09:20:11.535Z,7
2023-03-16T09:21:00.846Z,7.1
2023-03-16T09:22:00.818Z,7.1
2023-03-16T09:23:00.829Z,7.2
2023-03-16T09:24:00.837Z,7.2
2023-03-16T09:25:00.820Z,7.1
2023-03-16T09:26:00.882Z,7.2
2023-03-16T09:27:00.857Z,7.2
2023-03-16T09:28:00.839Z,7.2
2023-03-16T09:29:00.845Z,7.2
2023-03-16T09:30:00.853Z,7.3
2023-03-16T09:31:00.830Z,7.4
2023-03-16T09:32:00.824Z,7.4
2023-03-16T09:33:00.938Z,7.5
2023-03-16T09:34:00.846Z,7.4
2023-03-16T09:35:00.854Z,7.5
2023-03-16T09:36:00.932Z,7.5
2023-03-16T09:37:00.825Z,7.6
2023-03-16T09:38:06.858Z,7.6
2023-03-16T09:39:00.853Z,7.6
2023-03-16T09:40:06.821Z,7.6
2023-03-16T09:41:00.862Z,7.6
2023-03-16T09:42:00.832Z,7.7
2023-03-16T09:43:00.848Z,7.7
2023-03-16T09:44:00.833Z,7.8
2023-03-16T09:45:00.863Z,7.8
2023-03-16T09:46:00.892Z,7.8
2023-03-16T09:47:00.861Z,7.9
2023-03-16T09:48:00.855Z,7.9
2023-03-16T09:49:00.850Z,7.9
2023-03-16T09:50:00.888Z,8
2023-03-16T09:51:00.886Z,8.1
2023-03-16T09:52:00.850Z,8.1
2023-03-16T09:53:00.844Z,8.2
2023-03-16T09:54:00.861Z,8.2
2023-03-16T09:55:00.871Z,8.2
2023-03-16T09:56:00.864Z,8.2
2023-03-16T09:57:00.847Z,8.2
2023-03-16T09:58:00.845Z,8.2
2023-03-16T09:59:00.876Z,8.2
2023-03-16T10:00:00.950Z,8.2
2023-03-16T10:01:00.894Z,8.2
2023-03-16T10:02:00.869Z,8.2
2023-03-16T10:03:00.853Z,8.3
2023-03-16T10:04:01.045Z,8.3
2023-03-16T10:05:00.880Z,8.3
2023-03-16T10:06:00.883Z,8.4
2023-03-16T10:07:00.868Z,8.4
2023-03-16T10:08:00.863Z,8.4
2023-03-16T10:09:00.923Z,8.4
2023-03-16T10:10:00.921Z,8.4
2023-03-16T10:11:00.864Z,8.4
2023-03-16T10:12:00.868Z,8.4
2023-03-16T10:13:00.859Z,8.5
2023-03-16T10:14:00.877Z,8.6
2023-03-16T10:15:00.948Z,8.6
2023-03-16T10:16:00.875Z,8.6
2023-03-16T10:17:00.870Z,8.6
2023-03-16T10:18:00.873Z,8.6
2023-03-16T10:19:00.883Z,8.6
2023-03-16T10:20:00.912Z,8.6
2023-03-16T10:21:00.891Z,8.6
2023-03-16T10:22:00.886Z,8.6
2023-03-16T10:23:00.874Z,8.6
2023-03-16T10:24:00.905Z,8.6
2023-03-16T10:25:00.903Z,8.7
2023-03-16T10:26:00.900Z,8.8
2023-03-16T10:27:00.880Z,8.8
2023-03-16T10:28:00.880Z,8.9
2023-03-16T10:29:00.912Z,8.9
2023-03-16T10:30:00.914Z,8.9
2023-03-16T10:31:00.896Z,8.9
2023-03-16T10:32:00.915Z,9
2023-03-16T10:33:00.966Z,9
2023-03-16T10:34:00.916Z,9.1
2023-03-16T10:35:00.894Z,9.1
2023-03-16T10:36:00.888Z,9.1
2023-03-16T10:37:00.895Z,9.1
2023-03-16T10:38:00.930Z,9.1
2023-03-16T10:39:00.924Z,9.2
2023-03-16T10:40:00.951Z,9.2
2023-03-16T10:41:00.887Z,9.3
2023-03-16T10:42:00.924Z,9.4
2023-03-16T10:43:00.912Z,9.4
2023-03-16T10:44:00.916Z,9.5
2023-03-16T10:45:02.635Z,9.6
2023-03-16T10:46:00.921Z,9.6
2023-03-16T10:47:00.971Z,9.6
2023-03-16T10:48:00.932Z,9.6
2023-03-16T10:49:00.970Z,9.6
2023-03-16T10:50:01.012Z,9.6
2023-03-16T10:51:00.907Z,9.6
2023-03-16T10:52:00.943Z,9.7
2023-03-16T10:53:00.939Z,9.7
2023-03-16T10:54:00.933Z,9.8
2023-03-16T10:55:00.935Z,9.8
2023-03-16T10:56:00.910Z,9.9
2023-03-16T10:57:00.913Z,9.9
2023-03-16T10:58:00.942Z,9.9
2023-03-16T10:59:00.933Z,9.9
2023-03-16T11:00:01.067Z,10
2023-03-16T11:01:00.922Z,10
2023-03-16T11:02:00.918Z,10
2023-03-16T11:03:00.943Z,9.9
2023-03-16T11:04:00.933Z,9.9
2023-03-16T11:05:01.025Z,9.9
2023-03-16T11:06:00.940Z,9.9
2023-03-16T11:07:00.939Z,9.9
2023-03-16T11:08:00.942Z,9.9
2023-03-16T11:09:00.949Z,9.9
2023-03-16T11:10:00.990Z,10
2023-03-16T11:11:00.960Z,10
2023-03-16T11:12:00.939Z,9.9
2023-03-16T11:13:02.428Z,9.9
2023-03-16T11:14:00.943Z,10
2023-03-16T11:15:00.948Z,10.1
2023-03-16T11:16:00.963Z,10.1
2023-03-16T11:17:01.107Z,10.1
2023-03-16T11:18:00.940Z,10.1
2023-03-16T11:19:00.966Z,10.2
2023-03-16T11:20:00.955Z,10.2
2023-03-16T11:21:00.976Z,10.2
2023-03-16T11:22:00.965Z,10.3
2023-03-16T11:23:00.946Z,10.4
2023-03-16T11:24:00.946Z,10.4
2023-03-16T11:25:00.998Z,10.4
2023-03-16T11:26:00.969Z,10.5
2023-03-16T11:27:00.948Z,10.6
2023-03-16T11:28:00.951Z,10.6
2023-03-16T11:29:00.972Z,10.6
2023-03-16T11:30:00.964Z,10.7
2023-03-16T11:31:01.010Z,10.7
2023-03-16T11:32:00.987Z,10.8
2023-03-16T11:33:00.993Z,10.8
2023-03-16T11:34:00.983Z,10.8
2023-03-16T11:35:00.959Z,10.8
2023-03-16T11:36:01.000Z,10.8
2023-03-16T11:37:00.962Z,10.8
2023-03-16T11:38:00.981Z,10.8
2023-03-16T11:39:00.982Z,10.8
2023-03-16T11:40:00.999Z,10.8
2023-03-16T11:41:00.989Z,10.8
2023-03-16T11:42:00.973Z,10.8
2023-03-16T11:43:00.965Z,10.8
2023-03-16T11:44:00.984Z,10.9
2023-03-16T11:45:00.999Z,10.9
2023-03-16T11:46:01.047Z,10.9
2023-03-16T11:47:00.996Z,10.9
2023-03-16T11:48:00.977Z,11
2023-03-16T11:49:00.995Z,11
2023-03-16T11:50:00.984Z,11
2023-03-16T11:51:00.977Z,11
2023-03-16T11:52:01.019Z,11
2023-03-16T11:53:00.976Z,11.1
2023-03-16T11:54:01.001Z,11.2
2023-03-16T11:55:00.988Z,11.2
2023-03-16T11:56:00.985Z,11.3
2023-03-16T11:57:00.994Z,11.4
2023-03-16T11:58:00.988Z,11.5
2023-03-16T11:59:00.991Z,11.6
2023-03-16T12:00:02.015Z,11.8
2023-03-16T12:01:00.982Z,11.8
2023-03-16T12:02:01.446Z,11.9
2023-03-16T12:03:01.018Z,12.1
2023-03-16T12:04:01.095Z,12.1
2023-03-16T12:05:01.013Z,12.2
2023-03-16T12:06:07.788Z,12.2
2023-03-16T12:07:01.036Z,12.2
2023-03-16T12:08:01.014Z,12.1
2023-03-16T12:09:00.993Z,12
2023-03-16T12:10:00.943Z,11.9
2023-03-16T12:11:00.901Z,11.9
2023-03-16T12:12:00.872Z,11.9
2023-03-16T12:13:00.843Z,11.8
2023-03-16T12:14:00.842Z,11.8
2023-03-16T12:15:00.794Z,11.8
2023-03-16T12:16:00.772Z,11.8
2023-03-16T12:17:02.427Z,11.8
2023-03-16T12:18:00.710Z,11.9
2023-03-16T12:19:00.709Z,11.9
2023-03-16T12:20:00.668Z,12
2023-03-16T12:21:00.610Z,12.1
2023-03-16T12:22:00.578Z,12.1
2023-03-16T12:23:00.563Z,12.2
2023-03-16T12:24:00.578Z,12.3
2023-03-16T12:25:00.642Z,12.4
2023-03-16T12:26:00.566Z,12.4
2023-03-16T12:27:00.566Z,12.5
2023-03-16T12:28:00.569Z,12.6
2023-03-16T12:29:00.596Z,12.6
2023-03-16T12:30:00.669Z,12.6
2023-03-16T12:31:00.568Z,12.6
2023-03-16T12:32:00.586Z,12.6
2023-03-16T12:33:00.802Z,12.6
2023-03-16T12:34:00.593Z,12.6
2023-03-16T12:35:00.646Z,12.6
2023-03-16T12:36:00.673Z,12.6
2023-03-16T12:37:00.575Z,12.5
2023-03-16T12:38:00.582Z,12.4
2023-03-16T12:39:00.596Z,12.4
2023-03-16T12:40:00.631Z,12.4
2023-03-16T12:41:00.590Z,12.4
2023-03-16T12:42:00.583Z,12.4
2023-03-16T12:43:00.599Z,12.5
2023-03-16T12:44:00.630Z,12.6
2023-03-16T12:45:00.610Z,12.6
2023-03-16T12:46:00.647Z,12.6
2023-03-16T12:47:00.600Z,12.7
2023-03-16T12:48:00.587Z,12.7
2023-03-16T12:49:00.610Z,12.6
2023-03-16T12:50:00.649Z,12.6
2023-03-16T12:51:00.598Z,12.6
2023-03-16T12:52:00.594Z,12.6
2023-03-16T12:53:00.621Z,12.7
2023-03-16T12:54:00.596Z,12.7
2023-03-16T12:55:00.618Z,12.8
2023-03-16T12:56:00.592Z,12.8
2023-03-16T12:57:00.598Z,12.8
2023-03-16T12:58:00.610Z,12.9
2023-03-16T12:59:00.599Z,13
2023-03-16T13:00:00.655Z,13.1
2023-03-16T13:01:00.660Z,13.1
2023-03-16T13:02:00.629Z,13.1
2023-03-16T13:03:00.613Z,13.1
2023-03-16T13:04:00.662Z,13.1
2023-03-16T13:05:00.634Z,13
2023-03-16T13:06:00.613Z,13
2023-03-16T13:07:00.625Z,13
2023-03-16T13:08:00.621Z,13
2023-03-16T13:09:00.659Z,13.1
2023-03-16T13:10:00.665Z,13.1
2023-03-16T13:11:00.635Z,13.1
2023-03-16T13:12:00.623Z,13.1
2023-03-16T13:13:00.622Z,13.1
2023-03-16T13:14:00.653Z,13.1
2023-03-16T13:15:00.689Z,13.1
2023-03-16T13:16:00.635Z,13.1
2023-03-16T13:17:00.758Z,13.1
2023-03-16T13:18:00.623Z,13.1
2023-03-16T13:19:00.650Z,13.1
2023-03-16T13:20:00.670Z,13.1
2023-03-16T13:21:00.629Z,13.1
2023-03-16T13:22:00.635Z,13.1
2023-03-16T13:23:00.637Z,13.1
2023-03-16T13:24:00.670Z,13.1
2023-03-16T13:25:00.702Z,13.1
2023-03-16T13:26:00.669Z,12.9
2023-03-16T13:27:00.646Z,12.9
2023-03-16T13:28:00.644Z,12.9
2023-03-16T13:29:00.663Z,12.9
2023-03-16T13:30:00.669Z,12.9
2023-03-16T13:31:00.699Z,12.8
2023-03-16T13:32:00.695Z,12.9